sensor_id;sensor_type;location;lat;lon;timestamp;pressure;altitude;pressure_sealevel;temperature;humidity
73171;BME280;61381;50.118;19.962;2023-07-13T00:02:25;98143.47;;;19.55;100.00
73171;BME280;61381;50.118;19.962;2023-07-13T00:07:27;98170.38;;;19.76;100.00
73171;BME280;61381;50.118;19.962;2023-07-13T00:12:30;98186.59;;;19.89;100.00
73171;BME280;61381;50.118;19.962;2023-07-13T00:17:31;98174.13;;;20.04;100.00
73171;BME280;61381;50.118;19.962;2023-07-13T00:22:34;98175.25;;;20.03;100.00
73171;BME280;61381;50.118;19.962;2023-07-13T00:27:35;98178.56;;;19.92;100.00
73171;BME280;61381;50.118;19.962;2023-07-13T00:32:36;98188.63;;;19.76;100.00
73171;BME280;61381;50.118;19.962;2023-07-13T00:37:38;98161.00;;;19.58;100.00
73171;BME280;61381;50.118;19.962;2023-07-13T00:42:39;98167.50;;;19.53;100.00
73171;BME280;61381;50.118;19.962;2023-07-13T00:47:41;98185.84;;;19.40;100.00
73171;BME280;61381;50.118;19.962;2023-07-13T00:52:45;98207.38;;;19.33;100.00
73171;BME280;61381;50.118;19.962;2023-07-13T00:57:47;98191.59;;;19.23;100.00
73171;BME280;61381;50.118;19.962;2023-07-13T01:02:48;98196.22;;;19.06;100.00
73171;BME280;61381;50.118;19.962;2023-07-13T01:07:52;98177.19;;;18.91;100.00
73171;BME280;61381;50.118;19.962;2023-07-13T01:12:54;98151.16;;;18.89;100.00
73171;BME280;61381;50.118;19.962;2023-07-13T01:17:55;98148.03;;;18.87;100.00
73171;BME280;61381;50.118;19.962;2023-07-13T01:22:57;98155.81;;;18.89;100.00
73171;BME280;61381;50.118;19.962;2023-07-13T01:27:58;98145.50;;;18.95;100.00
73171;BME280;61381;50.118;19.962;2023-07-13T01:32:59;98139.88;;;18.87;100.00
73171;BME280;61381;50.118;19.962;2023-07-13T01:38:02;98132.41;;;18.84;100.00
73171;BME280;61381;50.118;19.962;2023-07-13T01:43:03;98129.94;;;18.79;100.00
73171;BME280;61381;50.118;19.962;2023-07-13T01:48:05;98117.25;;;18.83;100.00
73171;BME280;61381;50.118;19.962;2023-07-13T01:53:07;98101.78;;;18.84;100.00
73171;BME280;61381;50.118;19.962;2023-07-13T01:58:08;98096.59;;;18.79;100.00
73171;BME280;61381;50.118;19.962;2023-07-13T02:03:09;98102.13;;;18.82;100.00
73171;BME280;61381;50.118;19.962;2023-07-13T02:08:12;98092.97;;;18.87;100.00
73171;BME280;61381;50.118;19.962;2023-07-13T02:13:13;98076.66;;;18.87;100.00
73171;BME280;61381;50.118;19.962;2023-07-13T02:18:14;98076.81;;;18.78;100.00
73171;BME280;61381;50.118;19.962;2023-07-13T02:23:17;98074.00;;;18.75;100.00
73171;BME280;61381;50.118;19.962;2023-07-13T02:28:18;98068.75;;;18.66;100.00
73171;BME280;61381;50.118;19.962;2023-07-13T02:33:19;98067.84;;;18.62;100.00
73171;BME280;61381;50.118;19.962;2023-07-13T02:38:21;98072.50;;;18.61;100.00
73171;BME280;61381;50.118;19.962;2023-07-13T02:43:22;98094.00;;;18.54;100.00
73171;BME280;61381;50.118;19.962;2023-07-13T02:48:23;98098.09;;;18.48;100.00
73171;BME280;61381;50.118;19.962;2023-07-13T02:53:25;98115.31;;;18.40;100.00
73171;BME280;61381;50.118;19.962;2023-07-13T02:58:26;98115.66;;;18.38;100.00
73171;BME280;61381;50.118;19.962;2023-07-13T03:03:27;98114.63;;;18.43;100.00
73171;BME280;61381;50.118;19.962;2023-07-13T03:08:30;98099.94;;;18.44;100.00
73171;BME280;61381;50.118;19.962;2023-07-13T03:13:31;98106.94;;;18.45;100.00
73171;BME280;61381;50.118;19.962;2023-07-13T03:18:32;98118.94;;;18.44;100.00
73171;BME280;61381;50.118;19.962;2023-07-13T03:23:35;98109.50;;;18.53;100.00
73171;BME280;61381;50.118;19.962;2023-07-13T03:28:36;98125.72;;;18.66;100.00
73171;BME280;61381;50.118;19.962;2023-07-13T03:33:37;98126.66;;;18.86;100.00
73171;BME280;61381;50.118;19.962;2023-07-13T03:38:39;98137.19;;;19.03;100.00
73171;BME280;61381;50.118;19.962;2023-07-13T03:43:40;98130.19;;;19.18;100.00
73171;BME280;61381;50.118;19.962;2023-07-13T03:48:42;98126.56;;;19.46;100.00
73171;BME280;61381;50.118;19.962;2023-07-13T03:53:46;98113.84;;;19.82;100.00
73171;BME280;61381;50.118;19.962;2023-07-13T03:58:49;98108.22;;;20.30;100.00
73171;BME280;61381;50.118;19.962;2023-07-13T04:03:51;98121.66;;;21.28;100.00
73171;BME280;61381;50.118;19.962;2023-07-13T04:08:54;98121.44;;;22.20;100.00
73171;BME280;61381;50.118;19.962;2023-07-13T04:13:56;98135.22;;;23.44;100.00
73171;BME280;61381;50.118;19.962;2023-07-13T04:18:58;98155.75;;;24.42;100.00
73171;BME280;61381;50.118;19.962;2023-07-13T04:24:00;98165.75;;;25.94;100.00
73171;BME280;61381;50.118;19.962;2023-07-13T04:29:01;98177.06;;;26.32;100.00
73171;BME280;61381;50.118;19.962;2023-07-13T04:34:02;98185.84;;;27.95;96.27
73171;BME280;61381;50.118;19.962;2023-07-13T04:39:05;98212.34;;;29.70;87.62
73171;BME280;61381;50.118;19.962;2023-07-13T04:44:06;98215.19;;;29.67;86.14
73171;BME280;61381;50.118;19.962;2023-07-13T04:49:06;98197.03;;;27.77;96.99
73171;BME280;61381;50.118;19.962;2023-07-13T04:54:09;98186.03;;;27.21;99.37
73171;BME280;61381;50.118;19.962;2023-07-13T04:59:10;98168.91;;;25.96;100.00
73171;BME280;61381;50.118;19.962;2023-07-13T05:04:11;98167.38;;;26.91;100.00
73171;BME280;61381;50.118;19.962;2023-07-13T05:09:13;98163.38;;;28.38;91.76
73171;BME280;61381;50.118;19.962;2023-07-13T05:14:14;98184.16;;;30.67;74.31
73171;BME280;61381;50.118;19.962;2023-07-13T05:19:15;98184.44;;;31.25;71.13
73171;BME280;61381;50.118;19.962;2023-07-13T05:24:18;98195.09;;;32.51;65.08
73171;BME280;61381;50.118;19.962;2023-07-13T05:29:19;98203.03;;;31.91;67.58
73171;BME280;61381;50.118;19.962;2023-07-13T05:34:21;98196.59;;;30.35;74.40
73171;BME280;61381;50.118;19.962;2023-07-13T05:39:23;98176.47;;;29.20;80.57
73171;BME280;61381;50.118;19.962;2023-07-13T05:44:24;98165.53;;;27.82;85.72
73171;BME280;61381;50.118;19.962;2023-07-13T05:49:25;98153.69;;;26.83;95.47
73171;BME280;61381;50.118;19.962;2023-07-13T05:54:27;98155.84;;;27.14;92.79
73171;BME280;61381;50.118;19.962;2023-07-13T05:59:28;98157.41;;;26.41;98.09
73171;BME280;61381;50.118;19.962;2023-07-13T06:04:29;98160.59;;;26.25;99.53
73171;BME280;61381;50.118;19.962;2023-07-13T06:09:32;98164.97;;;25.93;100.00
73171;BME280;61381;50.118;19.962;2023-07-13T06:14:33;98143.28;;;26.35;100.00
73171;BME280;61381;50.118;19.962;2023-07-13T06:19:34;98147.31;;;28.33;90.61
73171;BME280;61381;50.118;19.962;2023-07-13T06:24:36;98132.38;;;26.21;100.00
73171;BME280;61381;50.118;19.962;2023-07-13T06:29:37;98135.19;;;25.85;100.00
73171;BME280;61381;50.118;19.962;2023-07-13T06:34:38;98134.06;;;26.81;93.38
73171;BME280;61381;50.118;19.962;2023-07-13T06:39:41;98141.09;;;25.79;98.17
73171;BME280;61381;50.118;19.962;2023-07-13T06:44:42;98133.13;;;26.28;98.83
73171;BME280;61381;50.118;19.962;2023-07-13T06:49:43;98141.00;;;26.23;97.15
73171;BME280;61381;50.118;19.962;2023-07-13T06:54:45;98144.25;;;25.56;100.00
73171;BME280;61381;50.118;19.962;2023-07-13T06:59:46;98148.56;;;25.46;100.00
73171;BME280;61381;50.118;19.962;2023-07-13T07:04:47;98166.06;;;26.32;95.88
73171;BME280;61381;50.118;19.962;2023-07-13T07:09:50;98172.81;;;25.95;100.00
73171;BME280;61381;50.118;19.962;2023-07-13T07:14:51;98174.91;;;26.79;92.99
73171;BME280;61381;50.118;19.962;2023-07-13T07:19:52;98181.34;;;27.21;87.49
73171;BME280;61381;50.118;19.962;2023-07-13T07:24:54;98173.53;;;28.07;87.16
73171;BME280;61381;50.118;19.962;2023-07-13T07:29:55;98173.84;;;28.16;77.18
73171;BME280;61381;50.118;19.962;2023-07-13T07:34:56;98163.56;;;26.70;85.73
73171;BME280;61381;50.118;19.962;2023-07-13T07:39:58;98145.03;;;25.71;89.92
73171;BME280;61381;50.118;19.962;2023-07-13T07:44:59;98147.63;;;26.36;87.00
73171;BME280;61381;50.118;19.962;2023-07-13T07:50:00;98151.50;;;27.16;83.52
73171;BME280;61381;50.118;19.962;2023-07-13T07:55:04;98150.59;;;26.74;87.97
73171;BME280;61381;50.118;19.962;2023-07-13T08:00:06;98149.47;;;27.73;80.33
73171;BME280;61381;50.118;19.962;2023-07-13T08:05:08;98153.44;;;28.14;75.51
73171;BME280;61381;50.118;19.962;2023-07-13T08:10:11;98164.81;;;27.74;70.61
73171;BME280;61381;50.118;19.962;2023-07-13T08:15:14;98149.59;;;27.10;73.92
73171;BME280;61381;50.118;19.962;2023-07-13T08:20:15;98160.28;;;28.94;69.41
73171;BME280;61381;50.118;19.962;2023-07-13T08:25:18;98170.56;;;29.92;67.42
73171;BME280;61381;50.118;19.962;2023-07-13T08:30:19;98167.53;;;29.39;64.19
73171;BME280;61381;50.118;19.962;2023-07-13T08:35:20;98164.28;;;29.21;66.25
73171;BME280;61381;50.118;19.962;2023-07-13T08:40:24;98159.34;;;30.63;65.33
73171;BME280;61381;50.118;19.962;2023-07-13T08:45:30;98159.72;;;31.18;59.47
73171;BME280;61381;50.118;19.962;2023-07-13T08:50:37;98166.47;;;30.81;59.06
73171;BME280;61381;50.118;19.962;2023-07-13T08:55:42;98157.34;;;30.03;58.86
73171;BME280;61381;50.118;19.962;2023-07-13T09:00:48;98149.69;;;30.31;62.27
73171;BME280;61381;50.118;19.962;2023-07-13T09:05:57;98141.84;;;30.86;58.51
73171;BME280;61381;50.118;19.962;2023-07-13T09:11:08;98130.91;;;29.35;62.97
73171;BME280;61381;50.118;19.962;2023-07-13T09:16:13;98124.47;;;27.94;70.65
73171;BME280;61381;50.118;19.962;2023-07-13T09:21:17;98127.25;;;28.29;66.48
73171;BME280;61381;50.118;19.962;2023-07-13T09:26:24;98125.63;;;27.59;68.44
73171;BME280;61381;50.118;19.962;2023-07-13T09:31:30;98120.72;;;26.83;74.30
73171;BME280;61381;50.118;19.962;2023-07-13T09:36:33;98122.38;;;26.59;73.20
73171;BME280;61381;50.118;19.962;2023-07-13T09:41:41;98121.91;;;27.31;70.48
73171;BME280;61381;50.118;19.962;2023-07-13T09:46:46;98118.34;;;27.80;72.05
73171;BME280;61381;50.118;19.962;2023-07-13T09:51:47;98122.25;;;27.82;72.89
73171;BME280;61381;50.118;19.962;2023-07-13T09:56:54;98129.47;;;28.07;70.06
73171;BME280;61381;50.118;19.962;2023-07-13T10:01:55;98135.59;;;27.84;68.95
73171;BME280;61381;50.118;19.962;2023-07-13T10:07:05;98131.47;;;27.16;74.88
73171;BME280;61381;50.118;19.962;2023-07-13T10:12:14;98128.25;;;26.61;78.33
73171;BME280;61381;50.118;19.962;2023-07-13T10:17:18;98126.13;;;26.13;81.35
73171;BME280;61381;50.118;19.962;2023-07-13T10:22:27;98113.97;;;26.03;88.28
73171;BME280;61381;50.118;19.962;2023-07-13T10:27:33;98127.28;;;26.12;87.38
73171;BME280;61381;50.118;19.962;2023-07-13T10:32:35;98131.63;;;25.95;96.90
73171;BME280;61381;50.118;19.962;2023-07-13T10:37:43;98137.56;;;25.00;99.29
73171;BME280;61381;50.118;19.962;2023-07-13T10:42:48;98135.94;;;24.77;100.00
73171;BME280;61381;50.118;19.962;2023-07-13T10:47:52;98149.91;;;24.43;100.00
73171;BME280;61381;50.118;19.962;2023-07-13T10:52:55;98144.03;;;23.75;100.00
73171;BME280;61381;50.118;19.962;2023-07-13T10:58:01;98139.94;;;23.50;100.00
73171;BME280;61381;50.118;19.962;2023-07-13T11:03:03;98141.28;;;23.23;100.00
73171;BME280;61381;50.118;19.962;2023-07-13T11:08:16;98145.97;;;22.81;100.00
73171;BME280;61381;50.118;19.962;2023-07-13T11:13:54;98154.81;;;22.37;100.00
73171;BME280;61381;50.118;19.962;2023-07-13T11:19:26;98158.00;;;21.59;100.00
73171;BME280;61381;50.118;19.962;2023-07-13T11:24:29;98165.03;;;21.13;100.00
73171;BME280;61381;50.118;19.962;2023-07-13T11:29:37;98160.75;;;20.93;100.00
73171;BME280;61381;50.118;19.962;2023-07-13T11:34:39;98237.97;;;20.45;100.00
73171;BME280;61381;50.118;19.962;2023-07-13T11:39:42;98239.88;;;17.83;100.00
73171;BME280;61381;50.118;19.962;2023-07-13T12:12:52;98325.84;;;18.57;100.00
73171;BME280;61381;50.118;19.962;2023-07-13T12:17:53;98333.19;;;19.66;100.00
73171;BME280;61381;50.118;19.962;2023-07-13T12:22:56;98330.47;;;19.50;100.00
73171;BME280;61381;50.118;19.962;2023-07-13T12:27:58;98330.88;;;19.36;100.00
73171;BME280;61381;50.118;19.962;2023-07-13T12:33:01;98342.53;;;18.96;100.00
73171;BME280;61381;50.118;19.962;2023-07-13T12:38:02;98326.56;;;19.35;100.00
73171;BME280;61381;50.118;19.962;2023-07-13T12:43:09;98323.09;;;19.78;100.00
73171;BME280;61381;50.118;19.962;2023-07-13T12:48:14;98319.06;;;19.60;100.00
73171;BME280;61381;50.118;19.962;2023-07-13T12:53:20;98312.91;;;20.23;100.00
73171;BME280;61381;50.118;19.962;2023-07-13T12:58:26;98317.78;;;20.49;100.00
73171;BME280;61381;50.118;19.962;2023-07-13T13:03:30;98313.97;;;20.70;100.00
73171;BME280;61381;50.118;19.962;2023-07-13T13:08:33;98329.44;;;20.85;100.00
73171;BME280;61381;50.118;19.962;2023-07-13T13:13:35;98326.50;;;20.75;100.00
73171;BME280;61381;50.118;19.962;2023-07-13T13:18:36;98330.47;;;20.97;100.00
73171;BME280;61381;50.118;19.962;2023-07-13T13:23:37;98334.63;;;21.30;100.00
73171;BME280;61381;50.118;19.962;2023-07-13T13:28:40;98342.97;;;21.17;100.00
73171;BME280;61381;50.118;19.962;2023-07-13T13:33:42;98353.50;;;21.58;100.00
73171;BME280;61381;50.118;19.962;2023-07-13T13:38:43;98352.41;;;21.82;100.00
73171;BME280;61381;50.118;19.962;2023-07-13T13:43:46;98356.97;;;21.55;100.00
73171;BME280;61381;50.118;19.962;2023-07-13T13:48:47;98357.72;;;21.75;100.00
73171;BME280;61381;50.118;19.962;2023-07-13T13:53:48;98365.78;;;22.14;100.00
73171;BME280;61381;50.118;19.962;2023-07-13T13:58:51;98370.16;;;22.42;100.00
73171;BME280;61381;50.118;19.962;2023-07-13T14:03:52;98375.19;;;22.40;100.00
73171;BME280;61381;50.118;19.962;2023-07-13T14:08:53;98369.16;;;22.80;100.00
73171;BME280;61381;50.118;19.962;2023-07-13T14:13:58;98374.78;;;22.65;100.00
73171;BME280;61381;50.118;19.962;2023-07-13T14:18:59;98376.84;;;23.02;100.00
73171;BME280;61381;50.118;19.962;2023-07-13T14:24:00;98363.84;;;23.90;100.00
73171;BME280;61381;50.118;19.962;2023-07-13T14:29:05;98372.38;;;23.47;100.00
73171;BME280;61381;50.118;19.962;2023-07-13T14:34:12;98385.00;;;23.96;100.00
73171;BME280;61381;50.118;19.962;2023-07-13T14:39:15;98376.94;;;23.73;100.00
73171;BME280;61381;50.118;19.962;2023-07-13T14:44:21;98379.50;;;24.37;100.00
73171;BME280;61381;50.118;19.962;2023-07-13T14:49:28;98387.47;;;24.57;100.00
73171;BME280;61381;50.118;19.962;2023-07-13T14:54:29;98387.72;;;24.37;100.00
73171;BME280;61381;50.118;19.962;2023-07-13T14:59:31;98380.41;;;25.12;100.00
73171;BME280;61381;50.118;19.962;2023-07-13T15:04:32;98381.22;;;25.23;99.07
73171;BME280;61381;50.118;19.962;2023-07-13T15:09:33;98407.00;;;25.07;99.11
73171;BME280;61381;50.118;19.962;2023-07-13T15:14:36;98425.47;;;25.18;100.00
73171;BME280;61381;50.118;19.962;2023-07-13T15:19:37;98407.78;;;24.52;100.00
73171;BME280;61381;50.118;19.962;2023-07-13T15:24:38;98413.59;;;23.99;100.00
73171;BME280;61381;50.118;19.962;2023-07-13T15:29:41;98407.75;;;23.06;100.00
73171;BME280;61381;50.118;19.962;2023-07-13T15:34:42;98410.13;;;23.07;100.00
73171;BME280;61381;50.118;19.962;2023-07-13T15:39:43;98419.41;;;23.03;100.00
73171;BME280;61381;50.118;19.962;2023-07-13T15:44:46;98410.59;;;23.09;100.00
73171;BME280;61381;50.118;19.962;2023-07-13T15:49:48;98418.41;;;23.11;100.00
73171;BME280;61381;50.118;19.962;2023-07-13T15:54:49;98416.50;;;23.15;100.00
73171;BME280;61381;50.118;19.962;2023-07-13T15:59:52;98423.19;;;23.51;100.00
73171;BME280;61381;50.118;19.962;2023-07-13T16:04:53;98427.88;;;24.22;100.00
73171;BME280;61381;50.118;19.962;2023-07-13T16:09:54;98428.06;;;23.69;100.00
73171;BME280;61381;50.118;19.962;2023-07-13T16:14:56;98445.69;;;24.06;100.00
73171;BME280;61381;50.118;19.962;2023-07-13T16:19:57;98447.38;;;23.15;100.00
73171;BME280;61381;50.118;19.962;2023-07-13T16:24:58;98456.97;;;22.33;100.00
73171;BME280;61381;50.118;19.962;2023-07-13T16:30:11;98458.28;;;22.19;100.00
73171;BME280;61381;50.118;19.962;2023-07-13T16:35:12;98461.22;;;22.11;100.00
73171;BME280;61381;50.118;19.962;2023-07-13T16:40:20;98467.78;;;22.29;100.00
73171;BME280;61381;50.118;19.962;2023-07-13T16:45:25;98452.53;;;22.97;100.00
73171;BME280;61381;50.118;19.962;2023-07-13T16:50:32;98471.91;;;23.12;100.00
73171;BME280;61381;50.118;19.962;2023-07-13T16:55:33;98481.56;;;23.32;100.00
73171;BME280;61381;50.118;19.962;2023-07-13T17:00:36;98483.00;;;23.00;100.00
73171;BME280;61381;50.118;19.962;2023-07-13T17:05:39;98479.88;;;23.24;100.00
73171;BME280;61381;50.118;19.962;2023-07-13T17:10:41;98475.50;;;22.93;100.00
73171;BME280;61381;50.118;19.962;2023-07-13T17:15:44;98469.69;;;23.51;100.00
73171;BME280;61381;50.118;19.962;2023-07-13T17:20:46;98477.28;;;23.96;97.85
73171;BME280;61381;50.118;19.962;2023-07-13T17:25:48;98477.13;;;24.19;95.57
73171;BME280;61381;50.118;19.962;2023-07-13T17:30:52;98463.03;;;24.17;95.30
73171;BME280;61381;50.118;19.962;2023-07-13T17:35:55;98446.94;;;24.12;97.19
73171;BME280;61381;50.118;19.962;2023-07-13T17:40:56;98445.44;;;23.20;99.41
73171;BME280;61381;50.118;19.962;2023-07-13T17:45:58;98450.84;;;22.62;100.00
73171;BME280;61381;50.118;19.962;2023-07-13T17:51:02;98444.97;;;21.95;100.00
73171;BME280;61381;50.118;19.962;2023-07-13T17:56:03;98453.44;;;21.70;100.00
73171;BME280;61381;50.118;19.962;2023-07-13T18:01:09;98456.66;;;21.95;100.00
73171;BME280;61381;50.118;19.962;2023-07-13T18:06:12;98452.53;;;22.05;100.00
73171;BME280;61381;50.118;19.962;2023-07-13T18:11:14;98447.38;;;22.00;100.00
73171;BME280;61381;50.118;19.962;2023-07-13T18:16:18;98455.53;;;21.96;100.00
73171;BME280;61381;50.118;19.962;2023-07-13T18:21:20;98456.09;;;21.86;100.00
73171;BME280;61381;50.118;19.962;2023-07-13T18:26:23;98461.84;;;21.61;100.00
73171;BME280;61381;50.118;19.962;2023-07-13T18:31:32;98458.34;;;21.45;100.00
73171;BME280;61381;50.118;19.962;2023-07-13T18:36:34;98474.09;;;21.16;100.00
73171;BME280;61381;50.118;19.962;2023-07-13T18:41:35;98477.22;;;20.98;100.00
73171;BME280;61381;50.118;19.962;2023-07-13T18:46:38;98473.13;;;21.08;100.00
73171;BME280;61381;50.118;19.962;2023-07-13T18:51:39;98480.00;;;21.02;100.00
73171;BME280;61381;50.118;19.962;2023-07-13T18:56:40;98491.75;;;20.42;100.00
73171;BME280;61381;50.118;19.962;2023-07-13T19:01:43;98500.03;;;20.46;100.00
73171;BME280;61381;50.118;19.962;2023-07-13T19:06:44;98514.66;;;20.25;100.00
73171;BME280;61381;50.118;19.962;2023-07-13T19:11:45;98514.00;;;20.00;100.00
73171;BME280;61381;50.118;19.962;2023-07-13T19:16:47;98522.16;;;20.00;100.00
73171;BME280;61381;50.118;19.962;2023-07-13T19:21:50;98527.63;;;20.16;100.00
73171;BME280;61381;50.118;19.962;2023-07-13T19:26:52;98527.63;;;19.88;100.00
73171;BME280;61381;50.118;19.962;2023-07-13T19:31:55;98546.41;;;19.93;100.00
73171;BME280;61381;50.118;19.962;2023-07-13T19:36:59;98538.81;;;19.99;100.00
73171;BME280;61381;50.118;19.962;2023-07-13T19:42:04;98539.38;;;19.92;100.00
73171;BME280;61381;50.118;19.962;2023-07-13T19:47:12;98526.00;;;19.99;100.00
73171;BME280;61381;50.118;19.962;2023-07-13T19:52:18;98524.56;;;19.89;100.00
73171;BME280;61381;50.118;19.962;2023-07-13T19:57:21;98534.19;;;19.74;100.00
73171;BME280;61381;50.118;19.962;2023-07-13T20:02:25;98530.84;;;19.53;100.00
73171;BME280;61381;50.118;19.962;2023-07-13T20:07:26;98532.19;;;19.59;100.00
73171;BME280;61381;50.118;19.962;2023-07-13T20:12:27;98538.72;;;19.30;100.00
73171;BME280;61381;50.118;19.962;2023-07-13T20:17:31;98535.88;;;19.14;100.00
73171;BME280;61381;50.118;19.962;2023-07-13T20:22:33;98539.06;;;19.16;100.00
73171;BME280;61381;50.118;19.962;2023-07-13T20:27:34;98546.63;;;18.85;100.00
73171;BME280;61381;50.118;19.962;2023-07-13T20:32:37;98533.56;;;18.79;100.00
73171;BME280;61381;50.118;19.962;2023-07-13T20:37:39;98545.28;;;18.58;100.00
73171;BME280;61381;50.118;19.962;2023-07-13T20:42:40;98549.78;;;18.54;100.00
73171;BME280;61381;50.118;19.962;2023-07-13T20:47:43;98559.31;;;18.60;100.00
73171;BME280;61381;50.118;19.962;2023-07-13T20:52:45;98555.59;;;18.65;100.00
73171;BME280;61381;50.118;19.962;2023-07-13T20:57:46;98566.00;;;18.63;100.00
73171;BME280;61381;50.118;19.962;2023-07-13T21:02:50;98564.28;;;18.25;100.00
73171;BME280;61381;50.118;19.962;2023-07-13T21:07:52;98566.91;;;18.00;100.00
73171;BME280;61381;50.118;19.962;2023-07-13T21:12:53;98553.72;;;18.11;100.00
73171;BME280;61381;50.118;19.962;2023-07-13T21:17:58;98557.03;;;18.16;100.00
73171;BME280;61381;50.118;19.962;2023-07-13T21:23:00;98570.13;;;18.14;100.00
73171;BME280;61381;50.118;19.962;2023-07-13T21:28:01;98577.28;;;17.98;100.00
73171;BME280;61381;50.118;19.962;2023-07-13T21:33:04;98577.81;;;17.91;100.00
73171;BME280;61381;50.118;19.962;2023-07-13T21:38:15;98577.53;;;17.84;100.00
73171;BME280;61381;50.118;19.962;2023-07-13T21:43:17;98584.81;;;17.92;100.00
73171;BME280;61381;50.118;19.962;2023-07-13T21:48:19;98578.56;;;17.71;100.00
73171;BME280;61381;50.118;19.962;2023-07-13T21:53:24;98577.38;;;17.80;100.00
73171;BME280;61381;50.118;19.962;2023-07-13T21:58:28;98579.06;;;17.94;100.00
73171;BME280;61381;50.118;19.962;2023-07-13T22:03:35;98578.84;;;17.78;100.00
73171;BME280;61381;50.118;19.962;2023-07-13T22:08:37;98579.22;;;17.68;100.00
73171;BME280;61381;50.118;19.962;2023-07-13T22:13:39;98586.22;;;17.69;100.00
73171;BME280;61381;50.118;19.962;2023-07-13T22:18:41;98576.13;;;17.57;100.00
73171;BME280;61381;50.118;19.962;2023-07-13T22:23:43;98579.00;;;17.22;100.00
73171;BME280;61381;50.118;19.962;2023-07-13T22:28:44;98580.44;;;17.19;100.00
73171;BME280;61381;50.118;19.962;2023-07-13T22:33:46;98577.47;;;17.12;100.00
73171;BME280;61381;50.118;19.962;2023-07-13T22:38:48;98570.47;;;17.11;100.00
73171;BME280;61381;50.118;19.962;2023-07-13T22:43:49;98561.59;;;17.02;100.00
73171;BME280;61381;50.118;19.962;2023-07-13T22:48:55;98557.16;;;16.88;100.00
73171;BME280;61381;50.118;19.962;2023-07-13T22:53:56;98557.84;;;16.68;100.00
73171;BME280;61381;50.118;19.962;2023-07-13T22:58:57;98560.69;;;16.80;100.00
73171;BME280;61381;50.118;19.962;2023-07-13T23:04:00;98562.34;;;16.55;100.00
73171;BME280;61381;50.118;19.962;2023-07-13T23:09:02;98563.16;;;16.47;100.00
73171;BME280;61381;50.118;19.962;2023-07-13T23:14:04;98561.56;;;16.37;100.00
73171;BME280;61381;50.118;19.962;2023-07-13T23:19:11;98564.31;;;16.28;100.00
73171;BME280;61381;50.118;19.962;2023-07-13T23:24:16;98577.16;;;16.40;100.00
73171;BME280;61381;50.118;19.962;2023-07-13T23:29:17;98574.28;;;16.45;100.00
73171;BME280;61381;50.118;19.962;2023-07-13T23:34:20;98571.00;;;16.22;100.00
73171;BME280;61381;50.118;19.962;2023-07-13T23:39:21;98580.38;;;16.07;100.00
73171;BME280;61381;50.118;19.962;2023-07-13T23:44:22;98590.06;;;16.34;100.00
73171;BME280;61381;50.118;19.962;2023-07-13T23:49:26;98584.19;;;16.15;100.00
73171;BME280;61381;50.118;19.962;2023-07-13T23:54:29;98587.19;;;16.04;100.00
73171;BME280;61381;50.118;19.962;2023-07-13T23:59:30;98582.72;;;16.35;100.00
